Terminal Aerodrome Forecast
Issued by NWS

Home | Current Version | Previous Version | Text Only | Print | Product List | Glossary On
Versions: 1 2 3 4 5 6 7 8 9 10 11 12 13 14 15 16 17 18 19 20 21 22 23 24 25 26 27 28 29 30 31 32 33 34 35 36 37 38
499
FTAK31 PAFA 271738
TAFASC
TAF
PASC 271738Z 2718/2818 22015KT P6SM BKN110
     FM280000 25013KT P6SM SCT050 OVC100
     FM280600 29010KT 5SM -RA BR BKN005 OVC025
     FM281500 08005KT 4SM -RA BR OVC007=

USA.gov is the U.S. government's official web portal to all federal, state and local government web resources and services.